Time;durP1;ratioP1;P1;durP2;ratioP2;P2;SDS_P1;SDS_P2;PMS_P1;PMS_P2;Temp;Humidity;BMP_temperature;BMP_pressure;BME280_temperature;BME280_humidity;BME280_pressure;Samples;Min_cycle;Max_cycle;Signal;HPM_P1;HPM_P2
2023/05/19 00:09:34;;;;;;;1999.90;999.90;;;11.10;99.90;;;;;;6744814;88;20250;-81
2023/05/19 00:19:36;;;;;;;1999.90;999.90;;;11.10;99.90;;;;;;6756593;88;20184;-81
2023/05/19 00:40:39;;;;;;;1999.90;999.90;;;10.80;99.90;;;;;;6759780;87;20216;-78
2023/05/19 00:50:40;;;;;;;1999.90;999.90;;;10.50;99.90;;;;;;6759739;88;20272;-78
2023/05/19 01:00:42;;;;;;;1999.90;999.90;;;10.50;99.90;;;;;;6761365;88;20193;-78
2023/05/19 01:10:42;;;;;;;1999.90;999.90;;;10.40;99.90;;;;;;6759131;87;20217;-79
2023/05/19 01:20:57;;;;;;;1999.90;999.90;;;10.40;99.90;;;;;;6756571;88;20193;-77
2023/05/19 01:31:00;;;;;;;1999.90;999.90;;;10.20;99.90;;;;;;6768681;87;20197;-79
2023/05/19 01:41:03;;;;;;;1999.90;999.90;;;10.10;99.90;;;;;;6757581;87;20181;-78
2023/05/19 01:51:03;;;;;;;1999.90;999.90;;;10.10;99.90;;;;;;6759621;87;20185;-80
2023/05/19 02:01:18;;;;;;;1999.90;999.90;;;10.00;99.90;;;;;;6761235;88;20185;-79
2023/05/19 02:11:34;;;;;;;1999.90;999.90;;;9.80;99.90;;;;;;6759144;87;20225;-80
2023/05/19 02:21:35;;;;;;;1999.90;999.90;;;9.70;99.90;;;;;;6760979;88;20185;-78
2023/05/19 02:31:35;;;;;;;1999.90;999.90;;;9.60;99.90;;;;;;6761168;87;20188;-77
2023/05/19 02:41:37;;;;;;;1999.90;999.90;;;9.50;99.90;;;;;;6762841;88;20172;-78
2023/05/19 02:51:37;;;;;;;1999.90;999.90;;;9.30;99.90;;;;;;6758907;88;20177;-78
2023/05/19 03:01:39;;;;;;;1999.90;999.90;;;9.10;99.90;;;;;;6758032;87;20215;-78
2023/05/19 03:11:39;;;;;;;1999.90;999.90;;;9.20;99.90;;;;;;6759106;87;20193;-78
2023/05/19 03:21:40;;;;;;;1999.90;999.90;;;9.10;99.90;;;;;;6760961;87;20226;-80
2023/05/19 03:31:41;;;;;;;1999.90;999.90;;;8.90;99.90;;;;;;6762395;87;20493;-80
2023/05/19 03:41:41;;;;;;;1999.90;999.90;;;8.80;99.90;;;;;;6763989;87;20230;-80
2023/05/19 03:51:43;;;;;;;1999.90;999.90;;;8.80;99.90;;;;;;6773661;87;20210;-80
2023/05/19 04:01:43;;;;;;;1999.90;999.90;;;8.60;99.90;;;;;;6763972;87;20246;-80
2023/05/19 04:11:44;;;;;;;1999.90;999.90;;;8.60;99.90;;;;;;6759443;87;20383;-80
2023/05/19 04:21:45;;;;;;;1999.90;999.90;;;8.60;99.90;;;;;;6761263;88;20192;-77
2023/05/19 04:31:46;;;;;;;1999.90;999.90;;;8.50;99.90;;;;;;6761593;88;20188;-78
2023/05/19 04:41:47;;;;;;;1999.90;999.90;;;8.70;99.90;;;;;;6757604;88;20836;-78
2023/05/19 04:51:49;;;;;;;1999.90;999.90;;;8.70;99.90;;;;;;6756881;87;20196;-78
2023/05/19 05:01:49;;;;;;;1999.90;999.90;;;8.80;99.90;;;;;;6761101;87;21043;-78
2023/05/19 05:11:50;;;;;;;1999.90;999.90;;;8.90;99.90;;;;;;6763798;87;20305;-78
2023/05/19 05:21:51;;;;;;;1999.90;999.90;;;9.10;99.90;;;;;;6760742;87;20638;-78
2023/05/19 05:31:51;;;;;;;1999.90;999.90;;;9.10;99.90;;;;;;6761643;88;20208;-78
2023/05/19 05:41:52;;;;;;;1999.90;999.90;;;9.30;99.90;;;;;;6756705;87;20655;-78
2023/05/19 05:51:53;;;;;;;1999.90;999.90;;;9.60;99.90;;;;;;6763403;87;20192;-78
2023/05/19 06:01:53;;;;;;;1999.90;999.90;;;10.10;99.90;;;;;;6762275;87;20192;-78
2023/05/19 06:11:54;;;;;;;1999.90;999.90;;;11.30;99.90;;;;;;6759962;88;20662;-78
2023/05/19 06:21:54;;;;;;;1999.90;999.90;;;12.20;99.90;;;;;;6751060;88;20216;-78
2023/05/19 06:31:55;;;;;;;1999.90;999.90;;;12.40;99.90;;;;;;6702041;88;20508;-78
2023/05/19 06:41:55;;;;;;;1999.90;999.90;;;12.80;99.90;;;;;;6762892;87;20188;-78
2023/05/19 06:51:56;;;;;;;1999.90;999.90;;;13.40;99.90;;;;;;6763163;87;20725;-78
2023/05/19 07:01:56;;;;;;;1999.90;999.90;;;14.00;99.90;;;;;;6763240;87;20207;-78
2023/05/19 07:11:57;;;;;;;1999.90;999.90;;;14.90;99.90;;;;;;6763709;88;20972;-79
2023/05/19 07:21:58;;;;;;;1999.90;999.90;;;15.70;99.90;;;;;;6764891;87;20235;-79
2023/05/19 07:31:58;;;;;;;1999.90;999.90;;;16.10;99.90;;;;;;6764565;87;20234;-80
2023/05/19 07:41:59;;;;;;;1999.90;999.90;;;16.40;99.90;;;;;;6762929;88;20246;-78
2023/05/19 07:52:00;;;;;;;1999.90;999.90;;;17.10;99.90;;;;;;6768677;88;20176;-79
2023/05/19 08:02:00;;;;;;;1999.90;999.90;;;17.80;99.30;;;;;;6769503;88;20196;-80
2023/05/19 08:12:01;;;;;;;1999.90;999.90;;;18.70;98.30;;;;;;6765191;88;20207;-81
2023/05/19 08:22:02;;;;;;;1999.90;999.90;;;19.00;97.30;;;;;;6761479;88;20269;-80
2023/05/19 08:32:04;;;;;;;1999.90;999.90;;;19.60;96.40;;;;;;6764531;88;20201;-80
2023/05/19 08:42:06;;;;;;;1999.90;999.90;;;20.30;95.00;;;;;;6768728;88;20705;-79
2023/05/19 08:52:52;;;;;;;1999.90;999.90;;;20.80;95.20;;;;;;6764004;88;20223;-78
2023/05/19 09:02:53;;;;;;;1999.90;999.90;;;20.90;93.00;;;;;;6761331;88;20180;-79
2023/05/19 09:12:54;;;;;;;1999.90;999.90;;;21.40;93.00;;;;;;6761563;88;20196;-78
2023/05/19 09:22:56;;;;;;;1999.90;999.90;;;22.40;91.40;;;;;;6761294;88;20259;-78
2023/05/19 09:32:56;;;;;;;1999.90;999.90;;;22.50;91.60;;;;;;6761143;88;20176;-79
2023/05/19 09:42:57;;;;;;;1999.90;999.90;;;23.20;90.90;;;;;;6761551;88;20220;-78
2023/05/19 09:52:58;;;;;;;1999.90;999.90;;;24.40;88.40;;;;;;6761595;88;20290;-80
2023/05/19 10:02:59;;;;;;;1999.90;999.90;;;25.10;86.80;;;;;;6761675;88;20589;-78
2023/05/19 10:13:02;;;;;;;1999.90;999.90;;;24.00;85.10;;;;;;6761276;88;20586;-80
2023/05/19 10:23:04;;;;;;;1999.90;999.90;;;25.10;83.90;;;;;;6760975;88;20257;-79
2023/05/19 10:33:09;;;;;;;1999.90;999.90;;;26.00;82.90;;;;;;6760799;87;20208;-78
2023/05/19 10:43:35;;;;;;;1999.90;999.90;;;27.40;81.10;;;;;;6759768;88;20244;-79
2023/05/19 10:53:45;;;;;;;1999.90;999.90;;;27.40;78.80;;;;;;6747935;88;20201;-79
2023/05/19 11:03:46;;;;;;;1999.90;999.90;;;25.80;78.10;;;;;;6745946;88;20625;-80
2023/05/19 11:13:50;;;;;;;1999.90;999.90;;;25.20;79.60;;;;;;6747029;88;20216;-80
2023/05/19 11:23:51;;;;;;;1999.90;999.90;;;25.40;76.50;;;;;;6747398;88;20213;-80
2023/05/19 11:33:52;;;;;;;1999.90;999.90;;;26.50;75.10;;;;;;6742785;88;20204;-80
2023/05/19 11:43:53;;;;;;;1999.90;999.90;;;26.70;74.70;;;;;;6745749;88;20639;-79
2023/05/19 11:53:53;;;;;;;1999.90;999.90;;;25.00;74.00;;;;;;6744596;88;20247;-80
2023/05/19 12:03:54;;;;;;;1999.90;999.90;;;26.80;72.90;;;;;;6748987;88;20225;-81
2023/05/19 12:13:58;;;;;;;1999.90;999.90;;;27.80;72.40;;;;;;6745300;88;20226;-79
2023/05/19 12:23:58;;;;;;;1999.90;999.90;;;28.20;71.10;;;;;;6745294;88;20263;-77
2023/05/19 12:34:00;;;;;;;1999.90;999.90;;;28.10;67.20;;;;;;6745424;88;20295;-77
2023/05/19 12:44:00;;;;;;;1999.90;999.90;;;28.70;68.20;;;;;;6740911;88;20180;-79
2023/05/19 12:54:03;;;;;;;1999.90;999.90;;;28.00;67.10;;;;;;6744825;88;20193;-79
2023/05/19 13:04:04;;;;;;;1999.90;999.90;;;26.80;67.20;;;;;;6743273;88;20268;-78
2023/05/19 13:14:04;;;;;;;1999.90;999.90;;;28.70;67.70;;;;;;6751167;88;20726;-77
2023/05/19 13:24:05;;;;;;;1999.90;999.90;;;28.80;65.30;;;;;;6743716;88;20311;-78
2023/05/19 13:34:05;;;;;;;1999.90;999.90;;;29.30;63.70;;;;;;6743811;88;21007;-78
2023/05/19 13:44:06;;;;;;;1999.90;999.90;;;28.80;64.30;;;;;;6743103;88;20664;-77
2023/05/19 13:54:07;;;;;;;1999.90;999.90;;;28.30;62.90;;;;;;6742950;88;20532;-80
2023/05/19 14:04:07;;;;;;;1999.90;999.90;;;28.50;63.40;;;;;;6748228;88;20208;-78
2023/05/19 14:14:08;;;;;;;1999.90;999.90;;;27.10;62.50;;;;;;6746580;88;20215;-78
2023/05/19 14:24:09;;;;;;;1999.90;999.90;;;27.30;65.30;;;;;;6746624;88;20210;-79
2023/05/19 14:34:09;;;;;;;1999.90;999.90;;;27.80;64.60;;;;;;6747273;88;20267;-79
2023/05/19 14:44:10;;;;;;;1999.90;999.90;;;26.80;63.80;;;;;;6742235;88;20184;-80
2023/05/19 14:54:10;;;;;;;1999.90;999.90;;;26.30;64.20;;;;;;6742849;88;20635;-79
2023/05/19 15:04:11;;;;;;;1999.90;999.90;;;26.60;64.50;;;;;;6745721;88;20201;-78
2023/05/19 15:14:11;;;;;;;1999.90;999.90;;;27.20;63.00;;;;;;6748864;88;20196;-78
2023/05/19 15:24:12;;;;;;;1999.90;999.90;;;27.40;62.50;;;;;;6747251;88;20200;-78
2023/05/19 15:34:12;;;;;;;1999.90;999.90;;;27.60;62.80;;;;;;6742548;88;20212;-80
2023/05/19 15:44:13;;;;;;;1999.90;999.90;;;27.20;62.50;;;;;;6742158;88;20206;-82
2023/05/19 15:54:13;;;;;;;1999.90;999.90;;;26.40;63.00;;;;;;6746323;88;20267;-78
2023/05/19 16:04:14;;;;;;;1999.90;999.90;;;26.20;62.70;;;;;;6747402;88;20202;-78
2023/05/19 16:14:14;;;;;;;1999.90;999.90;;;26.00;63.80;;;;;;6745550;88;20290;-77
2023/05/19 16:24:15;;;;;;;1999.90;999.90;;;25.10;64.50;;;;;;6745165;88;20188;-80
2023/05/19 16:34:15;;;;;;;1999.90;999.90;;;24.00;65.60;;;;;;6744529;88;20213;-81
2023/05/19 16:44:17;;;;;;;1999.90;999.90;;;23.50;67.20;;;;;;6743024;88;20317;-80
2023/05/19 16:54:17;;;;;;;1999.90;999.90;;;23.30;67.30;;;;;;6743181;88;20293;-79
2023/05/19 17:04:18;;;;;;;1999.90;999.90;;;22.90;68.30;;;;;;6743780;88;20215;-79
2023/05/19 17:14:19;;;;;;;1999.90;999.90;;;22.50;68.60;;;;;;6743009;88;20214;-82
2023/05/19 17:24:20;;;;;;;1999.90;999.90;;;22.00;70.50;;;;;;6745920;88;20192;-80
2023/05/19 17:34:20;;;;;;;1999.90;999.90;;;22.40;71.20;;;;;;6750652;88;20212;-80
2023/05/19 17:44:21;;;;;;;1999.90;999.90;;;23.30;70.80;;;;;;6749331;88;20300;-79
2023/05/19 17:54:24;;;;;;;1999.90;999.90;;;23.30;70.10;;;;;;6749626;88;20282;-80
2023/05/19 18:04:25;;;;;;;1999.90;999.90;;;22.40;71.00;;;;;;6748748;88;20229;-79
2023/05/19 18:14:26;;;;;;;1999.90;999.90;;;21.50;72.20;;;;;;6749426;88;20187;-79
2023/05/19 18:34:36;;;;;;;1999.90;999.90;;;21.50;74.70;;;;;;6740957;88;20890;-81
2023/05/19 18:44:37;;;;;;;1999.90;999.90;;;21.10;74.80;;;;;;6687064;89;20470;-79
2023/05/19 18:54:39;;;;;;;1999.90;999.90;;;20.80;75.60;;;;;;6719164;88;20185;-80
2023/05/19 19:04:39;;;;;;;1999.90;999.90;;;20.70;75.80;;;;;;6721802;88;20190;-81
2023/05/19 19:14:40;;;;;;;1999.90;999.90;;;20.30;77.30;;;;;;6722809;88;20713;-81
2023/05/19 19:24:41;;;;;;;1999.90;999.90;;;20.30;78.10;;;;;;6705113;88;20202;-80
2023/05/19 19:34:42;;;;;;;1999.90;999.90;;;20.00;79.50;;;;;;6723577;88;20666;-79
2023/05/19 19:44:43;;;;;;;1999.90;999.90;;;19.90;79.30;;;;;;6727117;88;20189;-79
2023/05/19 19:54:43;;;;;;;1999.90;999.90;;;19.60;79.20;;;;;;6730293;88;20210;-80
2023/05/19 20:04:44;;;;;;;1999.90;999.90;;;19.20;80.30;;;;;;6726840;88;20223;-80
2023/05/19 20:14:44;;;;;;;1999.90;999.90;;;18.90;80.90;;;;;;6724511;88;20211;-79
2023/05/19 20:24:45;;;;;;;1999.90;999.90;;;18.40;82.40;;;;;;6729830;88;20223;-81
2023/05/19 20:34:46;;;;;;;1999.90;999.90;;;18.20;83.00;;;;;;6738578;88;20205;-82
2023/05/19 20:44:46;;;;;;;1999.90;999.90;;;17.90;85.00;;;;;;6736059;88;20169;-80
2023/05/19 20:54:47;;;;;;;1999.90;999.90;;;17.60;85.00;;;;;;6737099;88;20595;-81
2023/05/19 21:04:48;;;;;;;1999.90;999.90;;;17.10;86.50;;;;;;6737866;88;20177;-81
2023/05/19 21:14:49;;;;;;;1999.90;999.90;;;16.80;87.40;;;;;;6736409;88;20174;-80
2023/05/19 21:24:50;;;;;;;1999.90;999.90;;;16.60;88.40;;;;;;6738908;88;20199;-81
2023/05/19 21:34:50;;;;;;;1999.90;999.90;;;16.40;89.30;;;;;;6740016;88;20281;-80
2023/05/19 21:44:51;;;;;;;1999.90;999.90;;;16.30;90.00;;;;;;6738759;88;20222;-79
2023/05/19 21:54:51;;;;;;;1999.90;999.90;;;16.00;90.60;;;;;;6742034;88;20223;-81
2023/05/19 22:04:52;;;;;;;1999.90;999.90;;;15.70;91.30;;;;;;6735462;88;20276;-81
2023/05/19 22:14:52;;;;;;;1999.90;999.90;;;15.60;91.50;;;;;;6735035;88;20844;-80
2023/05/19 22:24:53;;;;;;;1999.90;999.90;;;15.40;91.80;;;;;;6739262;88;20231;-81
2023/05/19 22:34:53;;;;;;;1999.90;999.90;;;15.20;92.30;;;;;;6740311;88;20201;-80
2023/05/19 22:44:54;;;;;;;1999.90;999.90;;;15.20;92.40;;;;;;6739818;88;20211;-81
2023/05/19 22:54:55;;;;;;;1999.90;999.90;;;15.00;92.90;;;;;;6739119;88;20728;-81
2023/05/19 23:04:55;;;;;;;1999.90;999.90;;;14.80;94.50;;;;;;6737388;88;20263;-81
2023/05/19 23:14:56;;;;;;;1999.90;999.90;;;14.40;95.90;;;;;;6736890;88;20281;-81
2023/05/19 23:24:56;;;;;;;1999.90;999.90;;;14.30;96.40;;;;;;6738498;88;20189;-80
2023/05/19 23:35:07;;;;;;;1999.90;999.90;;;14.10;98.40;;;;;;6702331;88;20199;-79
2023/05/19 23:45:07;;;;;;;1999.90;999.90;;;14.10;99.30;;;;;;6722039;88;20222;-80
2023/05/19 23:55:08;;;;;;;1999.90;999.90;;;14.00;99.90;;;;;;6715600;88;20711;-78
